createdAt,value
2016-02-14T00:00:50.010Z,0
2016-02-14T00:01:50.013Z,0
2016-02-14T00:02:49.985Z,0
2016-02-14T00:03:49.987Z,0
2016-02-14T00:04:50.005Z,0
2016-02-14T00:05:49.977Z,0
2016-02-14T00:06:49.979Z,0
2016-02-14T00:07:49.967Z,0
2016-02-14T00:08:49.954Z,0
2016-02-14T00:09:49.973Z,0
2016-02-14T00:10:49.929Z,0
2016-02-14T00:11:49.931Z,0
2016-02-14T00:12:49.917Z,0
2016-02-14T00:13:49.921Z,0
2016-02-14T00:14:49.907Z,0
2016-02-14T00:15:49.956Z,0
2016-02-14T00:16:49.898Z,0
2016-02-14T00:17:49.947Z,0
2016-02-14T00:18:49.903Z,0
2016-02-14T00:19:49.889Z,0
2016-02-14T00:20:49.908Z,0
2016-02-14T00:21:49.864Z,0
2016-02-14T00:22:49.851Z,0
2016-02-14T00:23:49.869Z,0
2016-02-14T00:24:49.887Z,0
2016-02-14T00:25:49.891Z,0
2016-02-14T00:26:49.705Z,0
2016-02-14T00:27:49.864Z,0
2016-02-14T00:28:49.867Z,0
2016-02-14T00:29:49.869Z,0
2016-02-14T00:30:49.862Z,0
2016-02-14T00:31:49.867Z,0
2016-02-14T00:32:49.853Z,0
2016-02-14T00:33:49.825Z,0
2016-02-14T00:34:49.859Z,0
2016-02-14T00:35:49.819Z,0
2016-02-14T00:36:49.838Z,0
2016-02-14T00:37:49.825Z,0
2016-02-14T00:38:49.827Z,0
2016-02-14T00:39:49.800Z,0
2016-02-14T00:40:49.817Z,0
2016-02-14T00:41:49.819Z,0
2016-02-14T00:42:49.808Z,0
2016-02-14T00:43:49.825Z,0
2016-02-14T00:44:49.812Z,0
2016-02-14T00:45:49.815Z,0
2016-02-14T00:46:49.833Z,0
2016-02-14T00:47:49.820Z,0
2016-02-14T00:48:49.808Z,0
2016-02-14T00:49:49.826Z,0
2016-02-14T00:50:49.797Z,0
2016-02-14T00:51:49.785Z,0
2016-02-14T00:52:49.802Z,0
2016-02-14T00:53:49.773Z,0
2016-02-14T00:54:49.762Z,0
2016-02-14T00:55:49.920Z,0
2016-02-14T00:56:49.829Z,0
2016-02-14T00:57:49.738Z,0
2016-02-14T00:58:49.772Z,0
2016-02-14T00:59:49.743Z,0
2016-02-14T01:00:49.793Z,0
2016-02-14T01:01:49.795Z,0
2016-02-14T01:02:49.798Z,0
2016-02-14T01:03:49.754Z,0
2016-02-14T01:04:49.819Z,0
2016-02-14T01:05:49.728Z,0
2016-02-14T01:06:49.747Z,0
2016-02-14T01:07:49.734Z,0
2016-02-14T01:08:49.580Z,0
2016-02-14T01:09:49.739Z,0
2016-02-14T01:10:49.725Z,0
2016-02-14T01:11:49.713Z,0
2016-02-14T01:12:49.700Z,0
2016-02-14T01:13:49.702Z,0
2016-02-14T01:14:49.722Z,0
2016-02-14T01:15:49.708Z,0
2016-02-14T01:16:49.711Z,0
2016-02-14T01:17:49.682Z,0
2016-02-14T01:18:49.701Z,0
2016-02-14T01:19:49.688Z,0
2016-02-14T01:20:49.690Z,0
2016-02-14T01:21:49.693Z,0
2016-02-14T01:22:49.680Z,0
2016-02-14T01:23:49.683Z,0
2016-02-14T01:24:49.686Z,0
2016-02-14T01:25:49.501Z,0
2016-02-14T01:26:49.534Z,0
2016-02-14T01:27:49.679Z,0
2016-02-14T01:29:03.759Z,0
2016-02-14T01:29:49.683Z,0
2016-02-14T01:30:49.670Z,0
2016-02-14T01:31:49.673Z,0
2016-02-14T01:32:49.675Z,0
2016-02-14T01:33:49.679Z,0
2016-02-14T01:34:49.665Z,0
2016-02-14T01:35:49.652Z,0
2016-02-14T01:36:49.937Z,0
2016-02-14T01:37:49.658Z,0
2016-02-14T01:38:49.613Z,0
2016-02-14T01:39:49.601Z,0
2016-02-14T01:40:49.619Z,0
2016-02-14T01:41:49.622Z,0
2016-02-14T01:42:49.594Z,0
2016-02-14T01:43:49.596Z,0
2016-02-14T01:44:49.599Z,0
2016-02-14T01:45:49.617Z,0
2016-02-14T01:46:49.604Z,0
2016-02-14T01:47:49.466Z,0
2016-02-14T01:48:49.609Z,0
2016-02-14T01:49:49.612Z,0
2016-02-14T01:50:49.599Z,0
2016-02-14T01:51:49.601Z,0
2016-02-14T01:52:49.635Z,0
2016-02-14T01:53:49.591Z,0
2016-02-14T01:54:49.609Z,0
2016-02-14T01:55:49.596Z,0
2016-02-14T01:56:49.646Z,0
2016-02-14T01:57:49.602Z,0
2016-02-14T01:58:49.777Z,0
2016-02-14T01:59:49.562Z,0
2016-02-14T02:00:49.564Z,0
2016-02-14T02:01:49.567Z,0
2016-02-14T02:02:49.522Z,0
2016-02-14T02:03:49.572Z,0
2016-02-14T02:04:49.387Z,0
2016-02-14T02:05:49.561Z,0
2016-02-14T02:06:49.564Z,0
2016-02-14T02:07:49.536Z,0
2016-02-14T02:08:49.523Z,0
2016-02-14T02:09:49.556Z,0
2016-02-14T02:10:49.559Z,0
2016-02-14T02:11:49.546Z,0
2016-02-14T02:12:49.534Z,0
2016-02-14T02:13:49.489Z,0
2016-02-14T02:14:49.507Z,0
2016-02-14T02:15:49.525Z,0
2016-02-14T02:16:49.528Z,0
2016-02-14T02:17:49.531Z,0
2016-02-14T02:18:49.534Z,0
2016-02-14T02:19:49.521Z,0
2016-02-14T02:20:49.492Z,0
2016-02-14T02:21:49.699Z,0
2016-02-14T02:22:49.544Z,0
2016-02-14T02:23:49.531Z,0
2016-02-14T02:24:49.488Z,0
2016-02-14T02:25:49.490Z,0
2016-02-14T02:26:49.524Z,0
2016-02-14T02:27:49.699Z,0
2016-02-14T02:28:49.701Z,0
2016-02-14T02:29:49.485Z,0
2016-02-14T02:30:49.488Z,0
2016-02-14T02:31:49.490Z,0
2016-02-14T02:32:49.493Z,0
2016-02-14T02:33:49.481Z,0
2016-02-14T02:34:49.451Z,0
2016-02-14T02:35:48.814Z,0
2016-02-14T02:36:49.520Z,0
2016-02-14T02:37:49.459Z,0
2016-02-14T02:38:49.447Z,0
2016-02-14T02:39:49.419Z,0
2016-02-14T02:40:49.436Z,0
2016-02-14T02:41:49.455Z,0
2016-02-14T02:42:49.458Z,0
2016-02-14T02:43:49.460Z,0
2016-02-14T02:44:49.463Z,0
2016-02-14T02:45:49.450Z,0
2016-02-14T02:46:49.406Z,0
2016-02-14T02:47:49.440Z,0
2016-02-14T02:48:49.443Z,0
2016-02-14T02:49:49.430Z,0
2016-02-14T02:50:49.432Z,0
2016-02-14T02:51:49.404Z,0
2016-02-14T02:52:49.407Z,0
2016-02-14T02:53:49.441Z,0
2016-02-14T02:54:49.413Z,0
2016-02-14T02:55:49.758Z,0
2016-02-14T02:56:48.901Z,0
2016-02-14T02:57:49.405Z,0
2016-02-14T02:58:49.423Z,0
2016-02-14T02:59:49.347Z,0
2016-02-14T03:00:49.209Z,0
2016-02-14T03:01:49.384Z,0
2016-02-14T03:02:49.401Z,0
2016-02-14T03:03:49.359Z,0
2016-02-14T03:04:49.361Z,0
2016-02-14T03:05:49.363Z,0
2016-02-14T03:06:49.382Z,0
2016-02-14T03:07:49.353Z,0
2016-02-14T03:08:49.371Z,0
2016-02-14T03:09:49.359Z,0
2016-02-14T03:10:49.345Z,0
2016-02-14T03:11:49.380Z,0
2016-02-14T03:12:49.351Z,0
2016-02-14T03:13:49.306Z,0
2016-02-14T03:14:49.341Z,0
2016-02-14T03:15:49.328Z,0
2016-02-14T03:16:49.315Z,0
2016-02-14T03:17:49.364Z,0
2016-02-14T03:18:49.335Z,0
2016-02-14T03:19:49.355Z,0
2016-02-14T03:20:49.294Z,0
2016-02-14T03:21:49.313Z,0
2016-02-14T03:22:49.299Z,0
2016-02-14T03:23:49.333Z,0
2016-02-14T03:24:49.352Z,0
2016-02-14T03:25:49.338Z,0
2016-02-14T03:26:48.670Z,0
2016-02-14T03:27:49.313Z,0
2016-02-14T03:28:49.301Z,0
2016-02-14T03:29:49.334Z,0
2016-02-14T03:30:49.321Z,0
2016-02-14T03:31:49.293Z,0
2016-02-14T03:32:49.326Z,0
2016-02-14T03:33:49.282Z,0
2016-02-14T03:34:49.285Z,0
2016-02-14T03:35:49.287Z,0
2016-02-14T03:36:49.275Z,0
2016-02-14T03:37:49.278Z,0
2016-02-14T03:38:49.295Z,0
2016-02-14T03:39:49.252Z,0
2016-02-14T03:40:49.254Z,0
2016-02-14T03:41:49.256Z,0
2016-02-14T03:42:49.291Z,0
2016-02-14T03:43:49.231Z,0
2016-02-14T03:44:48.577Z,0
2016-02-14T03:45:49.096Z,0
2016-02-14T03:46:49.239Z,0
2016-02-14T03:47:49.272Z,0
2016-02-14T03:48:49.245Z,0
2016-02-14T03:49:49.216Z,0
2016-02-14T03:50:49.249Z,0
2016-02-14T03:51:49.222Z,0
2016-02-14T03:52:49.036Z,0
2016-02-14T03:53:49.086Z,0
2016-02-14T03:54:49.245Z,0
2016-02-14T03:55:49.279Z,0
2016-02-14T03:56:49.235Z,0
2016-02-14T03:57:49.191Z,0
2016-02-14T03:58:49.193Z,0
2016-02-14T03:59:49.212Z,0
2016-02-14T04:00:49.214Z,0
2016-02-14T04:01:49.186Z,0
2016-02-14T04:02:49.188Z,0
2016-02-14T04:03:49.175Z,0
2016-02-14T04:04:49.210Z,0
2016-02-14T04:05:49.165Z,0
2016-02-14T04:06:49.168Z,0
2016-02-14T04:07:49.186Z,0
2016-02-14T04:08:49.173Z,0
2016-02-14T04:09:49.144Z,0
2016-02-14T04:10:49.148Z,0
2016-02-14T04:11:49.134Z,0
2016-02-14T04:12:49.183Z,0
2016-02-14T04:13:49.140Z,0
2016-02-14T04:14:49.142Z,0
2016-02-14T04:15:49.145Z,0
2016-02-14T04:16:49.133Z,0
2016-02-14T04:17:49.135Z,0
2016-02-14T04:18:49.138Z,0
2016-02-14T04:19:49.156Z,0
2016-02-14T04:20:49.158Z,0
2016-02-14T04:21:49.146Z,0
2016-02-14T04:22:49.117Z,0
2016-02-14T04:23:49.104Z,0
2016-02-14T04:24:49.122Z,0
2016-02-14T04:25:49.157Z,0
2016-02-14T04:26:49.097Z,0
2016-02-14T04:27:49.099Z,0
2016-02-14T04:28:49.133Z,0
2016-02-14T04:29:49.104Z,0
2016-02-14T04:30:49.107Z,0
2016-02-14T04:31:49.094Z,0
2016-02-14T04:32:49.065Z,0
2016-02-14T04:33:49.084Z,0
2016-02-14T04:34:49.071Z,0
2016-02-14T04:35:49.074Z,0
2016-02-14T04:36:49.123Z,0
2016-02-14T04:37:49.079Z,0
2016-02-14T04:38:49.098Z,0
2016-02-14T04:39:49.084Z,0
2016-02-14T04:40:49.072Z,0
2016-02-14T04:41:49.075Z,0
2016-02-14T04:42:49.096Z,0
2016-02-14T04:43:49.085Z,0
2016-02-14T04:44:49.102Z,0
2016-02-14T04:45:49.058Z,0
2016-02-14T04:46:49.045Z,0
2016-02-14T04:47:49.048Z,0
2016-02-14T04:48:49.065Z,0
2016-02-14T04:49:49.022Z,0
2016-02-14T04:50:49.071Z,0
2016-02-14T04:51:49.042Z,0
2016-02-14T04:52:49.061Z,0
2016-02-14T04:53:49.064Z,0
2016-02-14T04:54:49.020Z,0
2016-02-14T04:55:49.194Z,0
2016-02-14T04:56:49.056Z,0
2016-02-14T04:57:49.028Z,0
2016-02-14T04:58:49.015Z,0
2016-02-14T04:59:49.033Z,0
2016-02-14T05:00:49.051Z,0
2016-02-14T05:01:49.038Z,0
2016-02-14T05:02:48.854Z,0
2016-02-14T05:03:49.044Z,0
2016-02-14T05:04:49.015Z,0
2016-02-14T05:05:49.189Z,0
2016-02-14T05:06:48.989Z,0
2016-02-14T05:07:48.992Z,0
2016-02-14T05:08:48.980Z,0
2016-02-14T05:09:48.982Z,0
2016-02-14T05:10:48.984Z,0
2016-02-14T05:11:48.972Z,0
2016-02-14T05:12:48.975Z,0
2016-02-14T05:13:48.977Z,0
2016-02-14T05:14:48.965Z,0
2016-02-14T05:15:48.983Z,0
2016-02-14T05:16:48.955Z,0
2016-02-14T05:17:48.958Z,0
2016-02-14T05:18:48.960Z,0
2016-02-14T05:19:48.932Z,0
2016-02-14T05:20:48.966Z,0
2016-02-14T05:21:48.952Z,0
2016-02-14T05:22:48.924Z,0
2016-02-14T05:23:48.926Z,0
2016-02-14T05:24:48.946Z,0
2016-02-14T05:25:48.979Z,0
2016-02-14T05:26:48.919Z,0
2016-02-14T05:27:48.938Z,0
2016-02-14T05:28:48.924Z,0
2016-02-14T05:29:48.943Z,0
2016-02-14T05:30:48.930Z,0
2016-02-14T05:31:48.932Z,0
2016-02-14T05:32:49.153Z,0
2016-02-14T05:33:48.938Z,0
2016-02-14T05:34:48.925Z,0
2016-02-14T05:35:48.912Z,0
2016-02-14T05:36:48.899Z,0
2016-02-14T05:37:49.136Z,0
2016-02-14T05:38:48.920Z,0
2016-02-14T05:39:48.892Z,0
2016-02-14T05:40:48.909Z,0
2016-02-14T05:41:48.881Z,0
2016-02-14T05:42:48.883Z,0
2016-02-14T05:43:48.902Z,0
2016-02-14T05:44:48.875Z,0
2016-02-14T05:45:48.908Z,0
2016-02-14T05:46:48.880Z,0
2016-02-14T05:47:48.882Z,0
2016-02-14T05:48:48.853Z,0
2016-02-14T05:49:48.841Z,0
2016-02-14T05:50:48.858Z,0
2016-02-14T05:51:48.877Z,0
2016-02-14T05:52:48.864Z,0
2016-02-14T05:53:48.852Z,0
2016-02-14T05:54:48.870Z,0
2016-02-14T05:55:48.966Z,0
2016-02-14T05:56:48.890Z,0
2016-02-14T05:57:48.815Z,0
2016-02-14T05:58:48.833Z,0
2016-02-14T05:59:48.820Z,0
2016-02-14T06:00:48.807Z,0
2016-02-14T06:01:48.795Z,0
2016-02-14T06:02:48.797Z,0
2016-02-14T06:03:48.801Z,0
2016-02-14T06:04:48.651Z,0
2016-02-14T06:05:48.795Z,0
2016-02-14T06:06:48.781Z,0
2016-02-14T06:07:48.784Z,0
2016-02-14T06:08:48.787Z,0
2016-02-14T06:09:48.789Z,0
2016-02-14T06:10:48.778Z,0
2016-02-14T06:11:48.780Z,0
2016-02-14T06:12:48.782Z,0
2016-02-14T06:13:48.769Z,0
2016-02-14T06:14:48.772Z,0
2016-02-14T06:15:48.758Z,0
2016-02-14T06:16:48.746Z,0
2016-02-14T06:17:48.780Z,0
2016-02-14T06:18:48.735Z,0
2016-02-14T06:19:48.770Z,0
2016-02-14T06:20:48.741Z,0
2016-02-14T06:21:48.743Z,0
2016-02-14T06:22:48.762Z,0
2016-02-14T06:23:48.749Z,0
2016-02-14T06:24:48.735Z,5
2016-02-14T06:25:48.738Z,5
2016-02-14T06:26:48.741Z,5
2016-02-14T06:27:48.744Z,5
2016-02-14T06:28:48.716Z,5
2016-02-14T06:29:48.718Z,5
2016-02-14T06:30:48.721Z,5
2016-02-14T06:31:48.724Z,5
2016-02-14T06:32:48.742Z,10
2016-02-14T06:33:48.714Z,10
2016-02-14T06:34:48.700Z,10
2016-02-14T06:35:48.688Z,10
2016-02-14T06:36:48.722Z,10
2016-02-14T06:37:48.725Z,10
2016-02-14T06:38:48.742Z,10
2016-02-14T06:39:48.698Z,15
2016-02-14T06:40:48.685Z,15
2016-02-14T06:41:48.673Z,15
2016-02-14T06:42:48.722Z,15
2016-02-14T06:43:48.693Z,20
2016-02-14T06:44:48.681Z,20
2016-02-14T06:45:48.714Z,20
2016-02-14T06:46:48.780Z,25
2016-02-14T06:47:48.658Z,25
2016-02-14T06:48:48.645Z,25
2016-02-14T06:49:48.647Z,25
2016-02-14T06:50:48.666Z,30
2016-02-14T06:51:48.683Z,30
2016-02-14T06:52:48.702Z,35
2016-02-14T06:53:48.627Z,40
2016-02-14T06:54:48.613Z,40
2016-02-14T06:55:48.632Z,45
2016-02-14T06:56:48.666Z,45
2016-02-14T06:57:48.622Z,45
2016-02-14T06:58:48.609Z,45
2016-02-14T06:59:48.643Z,50
2016-02-14T07:00:48.963Z,50
2016-02-14T07:01:48.627Z,55
2016-02-14T07:02:48.590Z,55
2016-02-14T07:03:48.550Z,55
2016-02-14T07:04:49.857Z,60
2016-02-14T07:05:48.543Z,55
2016-02-14T07:06:47.854Z,50
2016-02-14T07:07:48.510Z,50
2016-02-14T07:08:48.525Z,50
2016-02-14T07:09:48.524Z,50
2016-02-14T07:10:48.526Z,50
2016-02-14T07:11:48.512Z,50
2016-02-14T07:12:48.498Z,55
2016-02-14T07:13:48.499Z,60
2016-02-14T07:14:48.502Z,70
2016-02-14T07:15:48.504Z,70
2016-02-14T07:16:48.489Z,70
2016-02-14T07:17:48.476Z,65
2016-02-14T07:18:48.494Z,70
2016-02-14T07:19:48.497Z,75
2016-02-14T07:20:48.468Z,80
2016-02-14T07:21:48.471Z,85
2016-02-14T07:22:48.503Z,85
2016-02-14T07:23:48.475Z,85
2016-02-14T07:24:48.461Z,80
2016-02-14T07:25:48.573Z,75
2016-02-14T07:26:48.498Z,80
2016-02-14T07:27:48.470Z,80
2016-02-14T07:28:48.503Z,80
2016-02-14T07:29:48.474Z,80
2016-02-14T07:30:48.556Z,80
2016-02-14T07:31:48.293Z,75
2016-02-14T07:32:48.467Z,70
2016-02-14T07:33:48.470Z,70
2016-02-14T07:34:48.457Z,70
2016-02-14T07:35:48.475Z,65
2016-02-14T07:36:48.447Z,65
2016-02-14T07:37:48.434Z,65
2016-02-14T07:38:48.451Z,70
2016-02-14T07:39:48.424Z,70
2016-02-14T07:40:48.457Z,70
2016-02-14T07:41:48.445Z,75
2016-02-14T07:42:48.448Z,75
2016-02-14T07:43:48.450Z,80
2016-02-14T07:44:48.421Z,85
2016-02-14T07:45:48.456Z,85
2016-02-14T07:46:48.426Z,80
2016-02-14T07:47:48.429Z,85
2016-02-14T07:48:48.448Z,85
2016-02-14T07:49:48.434Z,90
2016-02-14T07:50:48.313Z,90
2016-02-14T07:51:48.425Z,95
2016-02-14T07:52:48.412Z,100
2016-02-14T07:53:48.430Z,105
2016-02-14T07:54:48.417Z,105
2016-02-14T07:55:48.561Z,105
2016-02-14T07:56:48.438Z,105
2016-02-14T07:57:48.394Z,100
2016-02-14T07:58:48.411Z,95
2016-02-14T07:59:48.400Z,95
2016-02-14T08:00:48.402Z,95
2016-02-14T08:01:48.389Z,100
2016-02-14T08:02:48.391Z,100
2016-02-14T08:03:48.410Z,105
2016-02-14T08:04:48.397Z,110
2016-02-14T08:05:48.243Z,110
2016-02-14T08:06:48.449Z,105
2016-02-14T08:07:48.390Z,105
2016-02-14T08:08:48.393Z,110
2016-02-14T08:09:48.395Z,110
2016-02-14T08:10:48.366Z,110
2016-02-14T08:11:48.384Z,115
2016-02-14T08:12:48.575Z,120
2016-02-14T08:13:48.359Z,120
2016-02-14T08:14:48.376Z,110
2016-02-14T08:15:48.365Z,105
2016-02-14T08:16:48.367Z,110
2016-02-14T08:17:48.370Z,125
2016-02-14T08:18:48.357Z,140
2016-02-14T08:19:48.609Z,150
2016-02-14T08:20:48.346Z,160
2016-02-14T08:21:48.396Z,170
2016-02-14T08:22:48.384Z,180
2016-02-14T08:23:48.385Z,190
2016-02-14T08:24:48.388Z,195
2016-02-14T08:25:48.875Z,195
2016-02-14T08:26:48.378Z,180
2016-02-14T08:27:48.397Z,165
2016-02-14T08:28:48.352Z,160
2016-02-14T08:29:48.355Z,160
2016-02-14T08:30:48.530Z,165
2016-02-14T08:31:48.360Z,165
2016-02-14T08:32:48.347Z,165
2016-02-14T08:33:48.366Z,165
2016-02-14T08:34:48.383Z,175
2016-02-14T08:35:48.387Z,180
2016-02-14T08:36:48.374Z,185
2016-02-14T08:37:48.376Z,190
2016-02-14T08:38:48.348Z,190
2016-02-14T08:39:48.335Z,185
2016-02-14T08:40:48.307Z,175
2016-02-14T08:41:48.340Z,170
2016-02-14T08:42:48.405Z,160
2016-02-14T08:43:48.329Z,155
2016-02-14T08:44:48.302Z,155
2016-02-14T08:45:48.320Z,155
2016-02-14T08:46:48.322Z,160
2016-02-14T08:47:48.309Z,165
2016-02-14T08:48:48.312Z,165
2016-02-14T08:49:48.299Z,170
2016-02-14T08:50:48.334Z,175
2016-02-14T08:51:48.289Z,180
2016-02-14T08:52:48.323Z,185
2016-02-14T08:53:48.264Z,200
2016-02-14T08:54:49.422Z,210
2016-02-14T08:55:49.159Z,220
2016-02-14T08:56:48.959Z,225
2016-02-14T08:57:48.133Z,220
2016-02-14T08:58:48.792Z,220
2016-02-14T08:59:48.919Z,220
2016-02-14T09:00:49.079Z,215
2016-02-14T09:01:49.066Z,195
2016-02-14T09:02:48.225Z,165
2016-02-14T09:03:48.837Z,145
2016-02-14T09:04:48.933Z,115
2016-02-14T09:05:48.686Z,90
2016-02-14T09:06:48.766Z,85
2016-02-14T09:07:48.988Z,90
2016-02-14T09:08:48.866Z,100
2016-02-14T09:09:48.665Z,115
2016-02-14T09:10:48.872Z,135
2016-02-14T09:11:48.874Z,145
2016-02-14T09:12:49.033Z,155
2016-02-14T09:13:48.645Z,155
2016-02-14T09:14:48.491Z,155
2016-02-14T09:15:48.760Z,145
2016-02-14T09:16:48.918Z,145
2016-02-14T09:17:48.937Z,150
2016-02-14T09:18:49.049Z,165
2016-02-14T09:19:48.959Z,180
2016-02-14T09:20:48.914Z,200
2016-02-14T09:21:48.776Z,220
2016-02-14T09:22:48.010Z,235
2016-02-14T09:23:48.812Z,245
2016-02-14T09:24:48.078Z,260
2016-02-14T09:25:48.850Z,255
2016-02-14T09:26:48.836Z,265
2016-02-14T09:27:48.948Z,260
2016-02-14T09:28:48.811Z,260
2016-02-14T09:29:48.828Z,260
2016-02-14T09:30:48.878Z,250
2016-02-14T09:31:48.959Z,250
2016-02-14T09:32:48.696Z,250
2016-02-14T09:33:48.949Z,255
2016-02-14T09:34:48.827Z,265
2016-02-14T09:35:48.844Z,275
2016-02-14T09:36:48.520Z,280
2016-02-14T09:37:49.116Z,285
2016-02-14T09:38:48.884Z,290
2016-02-14T09:39:48.575Z,295
2016-02-14T09:40:48.718Z,290
2016-02-14T09:41:48.845Z,295
2016-02-14T09:42:48.551Z,300
2016-02-14T09:43:48.898Z,295
2016-02-14T09:44:48.713Z,300
2016-02-14T09:45:49.106Z,295
2016-02-14T09:46:48.781Z,295
2016-02-14T09:47:48.799Z,295
2016-02-14T09:48:49.114Z,290
2016-02-14T09:49:48.976Z,290
2016-02-14T09:50:49.009Z,280
2016-02-14T09:51:48.795Z,260
2016-02-14T09:52:48.859Z,245
2016-02-14T09:53:48.893Z,240
2016-02-14T09:54:48.803Z,250
2016-02-14T09:55:49.008Z,275
2016-02-14T09:56:48.164Z,285
2016-02-14T09:57:48.667Z,295
2016-02-14T09:58:49.047Z,290
2016-02-14T09:59:48.956Z,285
2016-02-14T10:00:48.928Z,265
2016-02-14T10:01:49.118Z,260
2016-02-14T10:02:49.199Z,265
2016-02-14T10:03:48.966Z,265
2016-02-14T10:04:48.060Z,260
2016-02-14T10:05:48.892Z,260
2016-02-14T10:06:49.037Z,260
2016-02-14T10:07:48.943Z,255
2016-02-14T10:08:49.371Z,245
2016-02-14T10:09:48.824Z,235
2016-02-14T10:10:48.780Z,240
2016-02-14T10:11:49.035Z,245
2016-02-14T10:12:48.629Z,270
2016-02-14T10:13:48.929Z,285
2016-02-14T10:14:48.885Z,280
2016-02-14T10:15:48.715Z,275
2016-02-14T10:16:49.046Z,265
2016-02-14T10:17:48.908Z,250
2016-02-14T10:18:48.396Z,235
2016-02-14T10:19:48.867Z,210
2016-02-14T10:20:48.915Z,210
2016-02-14T10:21:48.904Z,190
2016-02-14T10:22:49.046Z,195
2016-02-14T10:23:47.955Z,195
2016-02-14T10:24:48.818Z,190
2016-02-14T10:25:48.976Z,195
2016-02-14T10:26:48.807Z,190
2016-02-14T10:27:48.810Z,200
2016-02-14T10:28:49.297Z,200
2016-02-14T10:29:48.722Z,190
2016-02-14T10:30:48.600Z,180
2016-02-14T10:31:49.055Z,175
2016-02-14T10:32:48.855Z,185
2016-02-14T10:33:48.920Z,200
2016-02-14T10:34:48.798Z,225
2016-02-14T10:35:48.816Z,250
2016-02-14T10:36:48.880Z,265
2016-02-14T10:37:49.028Z,265
2016-02-14T10:38:48.670Z,270
2016-02-14T10:39:49.033Z,270
2016-02-14T10:40:48.676Z,270
2016-02-14T10:41:48.991Z,280
2016-02-14T10:42:48.744Z,260
2016-02-14T10:43:48.841Z,240
2016-02-14T10:44:48.686Z,225
2016-02-14T10:45:49.127Z,215
2016-02-14T10:46:48.739Z,210
2016-02-14T10:47:49.007Z,220
2016-02-14T10:48:48.698Z,235
2016-02-14T10:49:48.169Z,265
2016-02-14T10:50:48.843Z,290
2016-02-14T10:51:49.034Z,295
2016-02-14T10:52:49.004Z,260
2016-02-14T10:53:48.882Z,210
2016-02-14T10:54:49.057Z,190
2016-02-14T10:55:48.951Z,175
2016-02-14T10:56:49.063Z,175
2016-02-14T10:57:48.987Z,185
2016-02-14T10:58:48.990Z,200
2016-02-14T10:59:49.149Z,230
2016-02-14T11:00:49.167Z,275
2016-02-14T11:01:48.795Z,325
2016-02-14T11:02:48.829Z,340
2016-02-14T11:03:48.910Z,360
2016-02-14T11:04:48.975Z,360
2016-02-14T11:05:49.009Z,325
2016-02-14T11:06:48.918Z,285
2016-02-14T11:07:48.998Z,265
2016-02-14T11:08:48.500Z,245
2016-02-14T11:09:48.473Z,240
2016-02-14T11:10:48.506Z,235
2016-02-14T11:11:48.478Z,230
2016-02-14T11:12:48.309Z,225
2016-02-14T11:13:49.124Z,230
2016-02-14T11:14:49.221Z,225
2016-02-14T11:15:49.067Z,225
2016-02-14T11:16:49.132Z,225
2016-02-14T11:17:49.135Z,225
2016-02-14T11:18:49.247Z,235
2016-02-14T11:19:49.110Z,250
2016-02-14T11:20:49.158Z,245
2016-02-14T11:21:49.240Z,230
2016-02-14T11:22:49.008Z,220
2016-02-14T11:23:49.135Z,210
2016-02-14T11:24:49.060Z,205
2016-02-14T11:25:49.093Z,200
2016-02-14T11:26:49.222Z,200
2016-02-14T11:27:49.240Z,195
2016-02-14T11:28:49.008Z,200
2016-02-14T11:29:49.152Z,205
2016-02-14T11:30:49.185Z,220
2016-02-14T11:31:49.250Z,225
2016-02-14T11:32:49.145Z,235
2016-02-14T11:33:49.256Z,250
2016-02-14T11:34:49.150Z,265
2016-02-14T11:35:49.106Z,275
2016-02-14T11:36:49.092Z,285
2016-02-14T11:37:48.204Z,275
2016-02-14T11:38:49.175Z,265
2016-02-14T11:40:03.025Z,245
2016-02-14T11:41:03.169Z,225
2016-02-14T11:41:49.028Z,220
2016-02-14T11:42:49.671Z,190
2016-02-14T11:43:49.189Z,160
2016-02-14T11:44:49.192Z,145
2016-02-14T11:45:49.225Z,140
2016-02-14T11:46:49.510Z,130
2016-02-14T11:47:49.435Z,120
2016-02-14T11:48:49.093Z,110
2016-02-14T11:49:49.222Z,105
2016-02-14T11:50:49.286Z,115
2016-02-14T11:51:48.633Z,120
2016-02-14T11:52:48.604Z,125
2016-02-14T11:53:48.621Z,135
2016-02-14T11:54:48.610Z,160
2016-02-14T11:55:48.706Z,190
2016-02-14T11:56:48.865Z,200
2016-02-14T11:57:49.274Z,230
2016-02-14T11:58:49.010Z,275
2016-02-14T11:59:48.623Z,310
2016-02-14T12:00:49.219Z,330
2016-02-14T12:01:49.081Z,360
2016-02-14T12:02:49.193Z,390
2016-02-14T12:03:49.195Z,400
2016-02-14T12:04:49.073Z,400
2016-02-14T12:05:49.248Z,385
2016-02-14T12:06:49.172Z,365
2016-02-14T12:07:49.206Z,340
2016-02-14T12:08:49.381Z,310
2016-02-14T12:09:49.150Z,290
2016-02-14T12:10:49.075Z,280
2016-02-14T12:11:48.967Z,270
2016-02-14T12:12:49.142Z,270
2016-02-14T12:13:48.989Z,280
2016-02-14T12:14:49.413Z,280
2016-02-14T12:15:48.244Z,280
2016-02-14T12:16:49.169Z,280
2016-02-14T12:17:49.186Z,275
2016-02-14T12:18:48.299Z,275
2016-02-14T12:19:49.051Z,285
2016-02-14T12:20:49.414Z,285
2016-02-14T12:21:49.182Z,300
2016-02-14T12:22:49.184Z,315
2016-02-14T12:23:49.266Z,320
2016-02-14T12:24:49.190Z,330
2016-02-14T12:25:49.162Z,340
2016-02-14T12:26:49.226Z,350
2016-02-14T12:27:49.324Z,315
2016-02-14T12:29:03.765Z,265
2016-02-14T12:29:49.203Z,255
2016-02-14T12:30:49.269Z,255
2016-02-14T12:31:49.271Z,260
2016-02-14T12:32:49.321Z,270
2016-02-14T12:33:49.214Z,280
2016-02-14T12:34:49.373Z,290
2016-02-14T12:35:48.345Z,300
2016-02-14T12:36:49.456Z,305
2016-02-14T12:37:49.194Z,315
2016-02-14T12:38:49.368Z,315
2016-02-14T12:39:49.356Z,325
2016-02-14T12:40:49.030Z,325
2016-02-14T12:41:49.080Z,325
2016-02-14T12:42:49.239Z,330
2016-02-14T12:43:49.475Z,325
2016-02-14T12:44:49.181Z,320
2016-02-14T12:45:49.341Z,325
2016-02-14T12:46:48.765Z,335
2016-02-14T12:47:49.283Z,340
2016-02-14T12:48:49.380Z,345
2016-02-14T12:49:48.429Z,345
2016-02-14T12:50:48.463Z,340
2016-02-14T12:51:47.747Z,340
2016-02-14T12:52:49.312Z,330
2016-02-14T12:53:48.769Z,310
2016-02-14T12:54:49.302Z,310
2016-02-14T12:55:49.289Z,290
2016-02-14T12:56:49.432Z,275
2016-02-14T12:57:49.544Z,265
2016-02-14T12:58:49.516Z,245
2016-02-14T12:59:49.424Z,230
2016-02-14T13:00:49.537Z,230
2016-02-14T13:01:49.289Z,225
2016-02-14T13:02:49.496Z,235
2016-02-14T13:03:49.248Z,245
2016-02-14T13:04:49.281Z,260
2016-02-14T13:05:49.238Z,265
2016-02-14T13:06:49.318Z,260
2016-02-14T13:07:49.493Z,260
2016-02-14T13:08:49.417Z,265
2016-02-14T13:09:49.421Z,270
2016-02-14T13:10:49.423Z,265
2016-02-14T13:11:49.363Z,250
2016-02-14T13:12:49.506Z,240
2016-02-14T13:13:49.712Z,240
2016-02-14T13:14:49.481Z,250
2016-02-14T13:15:49.467Z,260
2016-02-14T13:16:49.408Z,265
2016-02-14T13:17:49.380Z,275
2016-02-14T13:18:49.600Z,300
2016-02-14T13:19:49.166Z,325
2016-02-14T13:20:49.294Z,355
2016-02-14T13:21:48.922Z,375
2016-02-14T13:22:49.002Z,375
2016-02-14T13:23:48.989Z,360
2016-02-14T13:24:49.039Z,345
2016-02-14T13:25:49.010Z,345
2016-02-14T13:26:49.029Z,340
2016-02-14T13:27:49.000Z,325
2016-02-14T13:28:49.002Z,310
2016-02-14T13:29:49.021Z,305
2016-02-14T13:30:49.040Z,305
2016-02-14T13:31:49.010Z,310
2016-02-14T13:32:49.045Z,315
2016-02-14T13:33:49.032Z,330
2016-02-14T13:34:49.051Z,355
2016-02-14T13:35:49.068Z,385
2016-02-14T13:36:49.040Z,395
2016-02-14T13:37:49.026Z,380
2016-02-14T13:38:49.061Z,340
2016-02-14T13:39:49.048Z,285
2016-02-14T13:40:49.081Z,245
2016-02-14T13:41:49.070Z,215
2016-02-14T13:42:50.947Z,195
2016-02-14T13:43:50.434Z,180
2016-02-14T13:44:50.045Z,180
2016-02-14T13:45:50.611Z,190
2016-02-14T13:46:49.708Z,205
2016-02-14T13:47:49.835Z,225
2016-02-14T13:48:50.432Z,245
2016-02-14T13:49:49.480Z,255
2016-02-14T13:50:49.844Z,255
2016-02-14T13:51:49.252Z,250
2016-02-14T13:52:49.598Z,240
2016-02-14T13:53:49.539Z,210
2016-02-14T13:54:49.604Z,180
2016-02-14T13:55:49.372Z,160
2016-02-14T13:56:49.452Z,155
2016-02-14T13:57:49.331Z,165
2016-02-14T13:58:49.599Z,200
2016-02-14T13:59:49.726Z,225
2016-02-14T14:00:49.621Z,240
2016-02-14T14:01:49.654Z,255
2016-02-14T14:02:49.657Z,250
2016-02-14T14:03:49.753Z,235
2016-02-14T14:04:49.615Z,210
2016-02-14T14:05:50.123Z,200
2016-02-14T14:06:48.797Z,220
2016-02-14T14:07:49.659Z,210
2016-02-14T14:08:48.819Z,195
2016-02-14T14:09:49.743Z,185
2016-02-14T14:10:49.777Z,160
2016-02-14T14:11:49.717Z,145
2016-02-14T14:12:49.735Z,130
2016-02-14T14:13:49.597Z,120
2016-02-14T14:14:50.256Z,110
2016-02-14T14:15:49.603Z,100
2016-02-14T14:16:49.699Z,100